Union Hill, IL (60969)

6:35 AM CDT on September 16, 2014 (GMT -0500)
Union Hill | Change Station
CLOSE
Current Station
Personal Weather Station
Location: Union Hill, IL
Elevation: 623 ft
Nearby Weather Stations

Elev 623 ft 41.11 °N, 88.15 °W | Updated 6 seconds ago

Clear
Clear
43.7 °F
Feels Like 44 °F
N
0.0
Wind Variable Wind from NNE
Gusts 1.0 mph

Today
High -- | Low -- °F
--% Chance of Precip.
Yesterday
High -- | Low -- °F
Precip. -- in
6:34 AM 7:00 PM
Last Quarter, 46% visible
Pressure 30.21 in
Visibility 4.0 miles
Clouds Clear
Windchill 44 °F
Dew Point 43 °F
Humidity 98%
Rainfall 0.00 in
Snow Depth Not available.
UV 0.0 out of 12
Pollen 5.90 out of 12
Ozone Good
PM2.5 Moderate
Flu Activity Not available.
METAR KIKK 161115Z AUTO 28004KT 4SM BR CLR 07/07 A3021 RMK AO2 T00720068

More Conditions Fewer Conditions

Pressure 30.21 in
Visibility 4.0 miles
Clouds Clear
Windchill 44 °F
Dew Point 43 °F
Humidity 98%
Rainfall 0.00 in
Snow Depth Not available.
UV 0.0 out of 12
Pollen 5.90 out of 12
Ozone Good
PM2.5 Moderate
Flu Activity Not available.
METAR KIKK 161115Z AUTO 28004KT 4SM BR CLR 07/07 A3021 RMK AO2 T00720068

More Conditions Fewer Conditions

10-Day Weather Forecast

Almanac

Astronomy

Sep. 16, 2014 Rise Set
Actual Time 6:34 AM CDT 7:00 PM CDT
Civil Twilight 6:06 AM CDT 7:27 PM CDT
Nautical Twilight 5:33 AM CDT 8:00 PM CDT
Astronomical Twilight 5:00 AM CDT 8:33 PM CDT
Moon No Moon Rise 2:25 PM CDT
Length of Visible Light 13h 21m
Length of Day
12h 25m
Tomorrow will be 2m 43s shorter.
Last Quarter, 46% of the Moon is Illuminated
Today
Last Quarter
Sep 24
New
Oct 1
First Quarter
Oct 8
Full
Oct 15
Last Quarter

Today's Extremes

State Highs State Lows

Community

WunderPhotos

Upload Photos

1,753,724 photos uploaded!

WunderBlogs® & News

By Dr. Jeff Masters
Director of Meteorology, Weather Underground
By Kari Strenfel
Meteorologist, Weather Underground
By Christopher C. Burt
Weather Historian, Weather Underground
September 16, 2014
September 16, 2014
September 16, 2014

Nearby

Air Quality

  Air Quality AQ Index Pollutant
Yesterday Good
PM2.5
Yesterday Good
OZONE
Current Moderate
PM2.5
Current Good
OZONE
Tuesday Good
PM2.5
Wednesday Good
PM2.5
Thursday Moderate
PM2.5
Friday Moderate
PM2.5

Snow Depth

Station Depth Elevation
No new snow has been reported.

Earthquake Activity

City Distance Mag. Time & Date
No recent earthquake activity has been reported nearby.
Minimum magnitude displayed is 2.5.

Coastal Water Temperatures

Place Temperature
No Stations Reporting

Nearby Weather Stations